Terminal Aerodrome Forecast
Issued by NWS

Home | Current Version | Previous Version | Text Only | Print | Product List | Glossary On
Versions: 1 2 3 4 5 6 7 8 9 10 11 12 13
000
FTUS44 KEPZ 240500
TAFDMN
TAF
KDMN 240529Z 2406/2506 13006KT P6SM FEW120
     FM241000 06006KT P6SM SKC
     FM241800 13009KT P6SM FEW110 SCT180
     FM250400 07005KT P6SM FEW180=

USA.gov is the U.S. government's official web portal to all federal, state and local government web resources and services.